createdAt,value
2023-11-04T00:01:24.968Z,76948.34
2023-11-04T00:03:17.695Z,76968.13
2023-11-04T00:05:09.288Z,76978.00
2023-11-04T00:07:01.808Z,76979.97
2023-11-04T00:08:53.773Z,76968.13
2023-11-04T00:10:45.056Z,76958.22
2023-11-04T00:12:36.494Z,76970.09
2023-11-04T00:14:28.184Z,76952.28
2023-11-04T00:16:19.454Z,76944.38
2023-11-04T00:18:11.111Z,76960.22
2023-11-04T00:20:04.349Z,76948.34
2023-11-04T00:21:56.761Z,76962.19
2023-11-04T00:23:48.518Z,76948.34
2023-11-04T00:25:40.389Z,76942.41
2023-11-04T00:27:32.375Z,76944.38
2023-11-04T00:29:23.943Z,76962.19
2023-11-04T00:31:15.178Z,76948.34
2023-11-04T00:33:26.760Z,76956.25
2023-11-04T00:35:37.974Z,76912.75
2023-11-04T00:37:49.476Z,76928.56
2023-11-04T00:40:07.499Z,76934.50
2023-11-04T00:42:18.731Z,76964.16
2023-11-04T00:44:30.835Z,76924.59
2023-11-04T00:46:42.170Z,76954.28
2023-11-04T00:48:55.216Z,76946.38
2023-11-04T00:51:06.961Z,76908.78
2023-11-04T00:53:18.211Z,76916.69
2023-11-04T00:55:29.627Z,76922.63
2023-11-04T00:57:40.840Z,76924.59
2023-11-04T00:59:52.188Z,76958.22
2023-11-04T01:02:03.702Z,76964.16
2023-11-04T01:04:15.368Z,76991.84
2023-11-04T01:06:26.402Z,76987.88
2023-11-04T01:08:37.961Z,76993.81
2023-11-04T01:10:49.481Z,76989.88
2023-11-04T01:13:01.582Z,76993.81
2023-11-04T01:15:13.090Z,77013.59
2023-11-04T01:17:24.360Z,77003.72
2023-11-04T01:19:36.258Z,76991.84
2023-11-04T01:21:48.408Z,76968.13
2023-11-04T01:23:59.779Z,76995.81
2023-11-04T01:26:11.164Z,76972.06
2023-11-04T01:28:22.580Z,77001.72
2023-11-04T01:30:34.687Z,77019.53
2023-11-04T01:32:46.093Z,76999.75
2023-11-04T01:34:57.181Z,76987.88
2023-11-04T01:37:08.393Z,77015.56
2023-11-04T01:39:19.505Z,76979.97
2023-11-04T01:41:30.778Z,77011.63
2023-11-04T01:43:43.877Z,77005.69
2023-11-04T01:46:16.673Z,77015.56
2023-11-04T01:48:27.958Z,77009.66
2023-11-04T01:50:39.474Z,77015.56
2023-11-04T01:52:50.743Z,77049.19
2023-11-04T01:55:02.752Z,77053.16
2023-11-04T01:57:13.967Z,77053.16
2023-11-04T01:59:27.272Z,77023.50
2023-11-04T02:01:42.041Z,77033.38
2023-11-04T02:03:54.923Z,77041.28
2023-11-04T02:06:08.477Z,77023.50
2023-11-04T02:08:20.759Z,77023.50
2023-11-04T02:10:32.240Z,77039.31
2023-11-04T02:12:43.776Z,77053.16
2023-11-04T02:14:55.258Z,77072.94
2023-11-04T02:17:06.545Z,77055.13
2023-11-04T02:19:18.144Z,77074.91
2023-11-04T02:21:29.785Z,77080.84
2023-11-04T02:23:41.086Z,77070.94
2023-11-04T02:25:52.610Z,77090.72
2023-11-04T02:28:03.610Z,77074.91
2023-11-04T02:30:15.204Z,77098.63
2023-11-04T02:32:26.538Z,77061.06
2023-11-04T02:34:38.010Z,77067.00
2023-11-04T02:36:49.496Z,77094.69
2023-11-04T02:39:00.672Z,77102.59
2023-11-04T02:41:12.498Z,77102.59
2023-11-04T02:43:24.504Z,77100.63
2023-11-04T02:45:35.717Z,77106.56
2023-11-04T02:47:47.577Z,77120.41
2023-11-04T02:49:59.011Z,77116.44
2023-11-04T02:52:11.062Z,77152.03
2023-11-04T02:54:22.377Z,77140.16
2023-11-04T02:56:33.362Z,77122.38
2023-11-04T02:58:44.964Z,77114.47
2023-11-04T03:00:58.477Z,77126.31
2023-11-04T03:03:12.131Z,77118.41
2023-11-04T03:05:28.254Z,77112.47
2023-11-04T03:07:46.607Z,77142.16
2023-11-04T03:09:57.626Z,77126.31
2023-11-04T03:12:08.700Z,77118.41
2023-11-04T03:14:20.071Z,77104.56
2023-11-04T03:16:31.897Z,77128.31
2023-11-04T03:18:45.801Z,77161.94
2023-11-04T03:20:57.331Z,77138.19
2023-11-04T03:23:08.270Z,77157.97
2023-11-04T03:25:21.465Z,77156.00
2023-11-04T03:27:32.481Z,77161.94
2023-11-04T03:29:43.527Z,77154.00
2023-11-04T03:31:54.813Z,77157.97
2023-11-04T03:34:05.966Z,77167.84
2023-11-04T03:36:17.448Z,77191.59
2023-11-04T03:38:28.664Z,77167.84
2023-11-04T03:40:40.239Z,77140.16
2023-11-04T03:42:51.181Z,77173.78
2023-11-04T03:45:02.684Z,77173.78
2023-11-04T03:47:14.004Z,77146.09
2023-11-04T03:49:25.105Z,77165.88
2023-11-04T03:51:36.341Z,77169.84
2023-11-04T03:53:55.699Z,77175.78
2023-11-04T03:56:07.905Z,77193.56
2023-11-04T03:58:19.518Z,77189.59
2023-11-04T04:00:30.723Z,77148.09
2023-11-04T04:02:42.574Z,77154.00
2023-11-04T04:04:54.601Z,77177.75
2023-11-04T04:07:06.598Z,77177.75
2023-11-04T04:09:18.550Z,77181.69
2023-11-04T04:11:31.630Z,77177.75
2023-11-04T04:13:43.306Z,77156.00
2023-11-04T04:15:55.529Z,77177.75
2023-11-04T04:18:07.531Z,77177.75
2023-11-04T04:20:29.310Z,77215.31
2023-11-04T04:22:40.818Z,77185.66
2023-11-04T04:24:52.237Z,77189.59
2023-11-04T04:27:03.332Z,77193.56
2023-11-04T04:29:14.682Z,77248.94
2023-11-04T04:31:29.351Z,77201.47
2023-11-04T04:33:40.248Z,77209.38
2023-11-04T04:35:51.669Z,77201.47
2023-11-04T04:38:03.440Z,77213.34
2023-11-04T04:40:14.530Z,77171.81
2023-11-04T04:42:25.736Z,77211.38
2023-11-04T04:44:37.096Z,77205.44
2023-11-04T04:46:48.160Z,77201.47
2023-11-04T04:49:00.116Z,77243.00
2023-11-04T04:51:11.339Z,77246.97
2023-11-04T04:53:22.475Z,77229.16
2023-11-04T04:55:34.242Z,77252.91
2023-11-04T04:57:49.822Z,77248.94
2023-11-04T05:00:01.033Z,77221.25
2023-11-04T05:02:12.099Z,77211.38
2023-11-04T05:04:23.781Z,77282.56
2023-11-04T05:06:35.042Z,77237.06
2023-11-04T05:08:46.410Z,77233.13
2023-11-04T05:10:57.925Z,77248.94
2023-11-04T05:13:09.570Z,77235.09
2023-11-04T05:15:20.866Z,77256.84
2023-11-04T05:17:32.114Z,77213.34
2023-11-04T05:19:44.352Z,77225.22
2023-11-04T05:21:56.504Z,77185.66
2023-11-04T05:24:09.742Z,77185.66
2023-11-04T05:26:22.001Z,77215.31
2023-11-04T05:28:33.708Z,77258.84
2023-11-04T05:30:45.230Z,77239.06
2023-11-04T05:32:57.925Z,77211.38
2023-11-04T05:35:09.722Z,77191.59
2023-11-04T05:37:20.722Z,77243.00
2023-11-04T05:39:32.701Z,77219.28
2023-11-04T05:41:43.681Z,77221.25
2023-11-04T05:43:55.232Z,77185.66
2023-11-04T05:46:09.332Z,77138.19
2023-11-04T05:48:21.980Z,77100.63
2023-11-04T05:50:33.562Z,77154.00
2023-11-04T05:52:46.149Z,77191.59
2023-11-04T05:54:56.964Z,77197.53
2023-11-04T05:57:08.693Z,77167.84
2023-11-04T05:59:19.880Z,77189.59
2023-11-04T06:01:31.346Z,77154.00
2023-11-04T06:03:42.640Z,77177.75
2023-11-04T06:05:53.478Z,77157.97
2023-11-04T06:08:04.958Z,77159.94
2023-11-04T06:10:26.152Z,77134.25
2023-11-04T06:12:37.487Z,77146.09
2023-11-04T06:14:49.042Z,77243.00
2023-11-04T06:16:59.944Z,77159.94
2023-11-04T06:19:11.190Z,77169.84
2023-11-04T06:21:23.598Z,77177.75
2023-11-04T06:23:34.482Z,77217.31
2023-11-04T06:25:46.077Z,77223.22
2023-11-04T06:27:57.728Z,77157.97
2023-11-04T06:30:09.445Z,77045.25
2023-11-04T06:32:20.509Z,76960.22
2023-11-04T06:34:31.700Z,76920.66
2023-11-04T06:36:42.944Z,76978.00
2023-11-04T06:38:53.995Z,76962.19
2023-11-04T06:41:06.354Z,77003.72
2023-11-04T06:43:17.642Z,77074.91
2023-11-04T06:45:28.796Z,77120.41
2023-11-04T06:47:39.962Z,77100.63
2023-11-04T06:49:51.517Z,77068.97
2023-11-04T06:51:58.140Z,77142.16
2023-11-04T06:53:50.311Z,77175.78
2023-11-04T06:55:41.759Z,77092.72
2023-11-04T06:57:35.401Z,77134.25
2023-11-04T06:59:26.439Z,77114.47
2023-11-04T07:01:17.812Z,77122.38
2023-11-04T07:03:09.230Z,77074.91
2023-11-04T07:05:01.209Z,77015.56
2023-11-04T07:06:53.193Z,77031.41
2023-11-04T07:08:45.130Z,77011.63
2023-11-04T07:10:38.869Z,77110.50
2023-11-04T07:12:29.873Z,77102.59
2023-11-04T07:14:21.362Z,77106.56
2023-11-04T07:16:13.669Z,77104.56
2023-11-04T07:18:08.856Z,77067.00
2023-11-04T07:20:00.405Z,77086.78
2023-11-04T07:21:52.060Z,77070.94
2023-11-04T07:23:43.205Z,77049.19
2023-11-04T07:25:35.306Z,77037.34
2023-11-04T07:27:26.998Z,77088.75
2023-11-04T07:29:19.149Z,77122.38
2023-11-04T07:31:10.116Z,77031.41
2023-11-04T07:33:01.639Z,77041.28
2023-11-04T07:34:52.938Z,77043.25
2023-11-04T07:36:44.058Z,77029.41
2023-11-04T07:38:35.580Z,77033.38
2023-11-04T07:40:26.947Z,77070.94
2023-11-04T07:42:18.199Z,77072.94
2023-11-04T07:44:09.608Z,77063.03
2023-11-04T07:46:01.512Z,77063.03
2023-11-04T07:47:53.195Z,77015.56
2023-11-04T07:49:44.477Z,77033.38
2023-11-04T07:51:35.790Z,77037.34
2023-11-04T07:53:27.098Z,77057.09
2023-11-04T07:55:18.603Z,77007.66
2023-11-04T07:57:09.424Z,76954.28
2023-11-04T07:59:00.305Z,76979.97
2023-11-04T08:00:51.785Z,77023.50
2023-11-04T08:02:43.622Z,77047.22
2023-11-04T08:04:35.290Z,77067.00
2023-11-04T08:06:26.559Z,77021.50
2023-11-04T08:08:18.070Z,77011.63
2023-11-04T08:10:10.196Z,76993.81
2023-11-04T08:12:01.519Z,76983.94
2023-11-04T08:13:55.586Z,77035.34
2023-11-04T08:15:46.923Z,77045.25
2023-11-04T08:17:38.463Z,77070.94
2023-11-04T08:19:29.843Z,77051.19
2023-11-04T08:21:21.185Z,77063.03
2023-11-04T08:23:12.780Z,77017.56
2023-11-04T08:25:04.422Z,77015.56
2023-11-04T08:26:56.473Z,76983.94
2023-11-04T08:28:47.875Z,77003.72
2023-11-04T08:30:40.074Z,77074.91
2023-11-04T08:32:31.846Z,77074.91
2023-11-04T08:34:24.073Z,77041.28
2023-11-04T08:36:16.433Z,77019.53
2023-11-04T08:38:07.867Z,77047.22
2023-11-04T08:39:58.820Z,77015.56
2023-11-04T08:41:50.373Z,77023.50
2023-11-04T08:43:44.882Z,76983.94
2023-11-04T08:45:36.346Z,77003.72
2023-11-04T08:47:27.731Z,76966.13
2023-11-04T08:49:19.713Z,76948.34
2023-11-04T08:51:10.990Z,76993.81
2023-11-04T08:53:02.386Z,77039.31
2023-11-04T08:54:53.760Z,77074.91
2023-11-04T08:56:49.739Z,77100.63
2023-11-04T08:58:41.829Z,77029.41
2023-11-04T09:00:33.485Z,77078.88
2023-11-04T09:02:24.835Z,77049.19
2023-11-04T09:04:23.722Z,76999.75
2023-11-04T09:06:18.235Z,77023.50
2023-11-04T09:08:09.707Z,77003.72
2023-11-04T09:10:09.501Z,77015.56
2023-11-04T09:12:05.076Z,77067.00
2023-11-04T09:13:57.199Z,77094.69
2023-11-04T09:15:48.599Z,77059.09
2023-11-04T09:17:43.239Z,77049.19
2023-11-04T09:19:35.221Z,77106.56
2023-11-04T09:21:30.214Z,77102.59
2023-11-04T09:23:21.904Z,77128.31
2023-11-04T09:25:14.765Z,77068.97
2023-11-04T09:27:07.058Z,77041.28
2023-11-04T09:28:58.584Z,77047.22
2023-11-04T09:30:51.092Z,77080.84
2023-11-04T09:32:42.337Z,77122.38
2023-11-04T09:34:34.835Z,77116.44
2023-11-04T09:36:28.244Z,77124.34
2023-11-04T09:38:19.449Z,77134.25
2023-11-04T09:40:11.275Z,77082.81
2023-11-04T09:42:02.740Z,77086.78
2023-11-04T09:43:54.397Z,77102.59
2023-11-04T09:45:46.539Z,77055.13
2023-11-04T09:47:38.286Z,77094.69
2023-11-04T09:49:30.052Z,77074.91
2023-11-04T09:51:23.152Z,77086.78
2023-11-04T09:53:25.546Z,77086.78
2023-11-04T09:55:17.145Z,77090.72
2023-11-04T09:57:12.404Z,77061.06
2023-11-04T09:59:06.977Z,77045.25
2023-11-04T10:00:59.939Z,77068.97
2023-11-04T10:02:51.496Z,77005.69
2023-11-04T10:04:43.083Z,76983.94
2023-11-04T10:06:34.361Z,76946.38
2023-11-04T10:08:26.414Z,76981.97
2023-11-04T10:10:22.728Z,76920.66
2023-11-04T10:12:20.318Z,77015.56
2023-11-04T10:14:11.817Z,76944.38
2023-11-04T10:16:05.410Z,76940.44
2023-11-04T10:17:57.874Z,76954.28
2023-11-04T10:19:49.706Z,76926.59
2023-11-04T10:21:41.412Z,76936.47
2023-11-04T10:23:33.909Z,76979.97
2023-11-04T10:25:25.118Z,76987.88
2023-11-04T10:27:18.231Z,77029.41
2023-11-04T10:29:09.908Z,77011.63
2023-11-04T10:31:13.541Z,77041.28
2023-11-04T10:33:09.348Z,77019.53
2023-11-04T10:35:03.739Z,77047.22
2023-11-04T10:37:14.587Z,77043.25
2023-11-04T10:39:09.310Z,77009.66
2023-11-04T10:41:01.045Z,77047.22
2023-11-04T10:42:57.772Z,77027.44
2023-11-04T10:44:52.647Z,77031.41
2023-11-04T10:46:57.123Z,77059.09
2023-11-04T10:48:56.093Z,77015.56
2023-11-04T10:50:52.096Z,77055.13
2023-11-04T10:52:50.364Z,77076.88
2023-11-04T10:54:47.938Z,77072.94
2023-11-04T10:56:45.636Z,77055.13
2023-11-04T10:59:00.082Z,77051.19
2023-11-04T11:00:52.580Z,77039.31
2023-11-04T11:02:45.078Z,77031.41
2023-11-04T11:04:37.482Z,77084.78
2023-11-04T11:06:31.182Z,77076.88
2023-11-04T11:08:23.468Z,77061.06
2023-11-04T11:10:18.009Z,77082.81
2023-11-04T11:12:13.816Z,77116.44
2023-11-04T11:14:05.752Z,77100.63
2023-11-04T11:15:59.841Z,77088.75
2023-11-04T11:17:57.805Z,77096.66
2023-11-04T11:19:53.067Z,77074.91
2023-11-04T11:21:51.377Z,77084.78
2023-11-04T11:23:43.811Z,77051.19
2023-11-04T11:25:35.838Z,77029.41
2023-11-04T11:27:27.211Z,77130.28
2023-11-04T11:29:21.304Z,77138.19
2023-11-04T11:31:15.404Z,77108.53
2023-11-04T11:33:10.565Z,77090.72
2023-11-04T11:35:01.913Z,77122.38
2023-11-04T11:36:54.240Z,77165.88
2023-11-04T11:38:45.841Z,77156.00
2023-11-04T11:40:47.720Z,77114.47
2023-11-04T11:42:43.524Z,77051.19
2023-11-04T11:44:35.059Z,77114.47
2023-11-04T11:46:26.486Z,77100.63
2023-11-04T11:48:18.001Z,77130.28
2023-11-04T11:50:09.362Z,77142.16
2023-11-04T11:52:01.192Z,77096.66
2023-11-04T11:53:52.711Z,77142.16
2023-11-04T11:55:44.091Z,77163.91
2023-11-04T11:57:36.485Z,77152.03
2023-11-04T11:59:28.835Z,77171.81
2023-11-04T12:01:21.533Z,77215.31
2023-11-04T12:03:13.279Z,77225.22
2023-11-04T12:05:05.080Z,77221.25
2023-11-04T12:06:56.805Z,77235.09
2023-11-04T12:10:54.906Z,77213.34
2023-11-04T12:12:47.618Z,77296.41
2023-11-04T12:14:39.089Z,77258.84
2023-11-04T12:16:34.014Z,77260.81
2023-11-04T12:18:27.826Z,77237.06
2023-11-04T12:20:21.318Z,77262.78
2023-11-04T12:22:12.916Z,77258.84
2023-11-04T12:24:07.972Z,77294.44
2023-11-04T12:26:00.038Z,77294.44
2023-11-04T12:27:51.748Z,77302.34
2023-11-04T12:29:44.226Z,77320.13
2023-11-04T12:31:35.713Z,77302.34
2023-11-04T12:33:27.420Z,77355.75
2023-11-04T12:35:19.149Z,77361.69
2023-11-04T12:37:11.166Z,77363.66
2023-11-04T12:39:02.502Z,77324.09
2023-11-04T12:40:54.966Z,77335.97
2023-11-04T12:42:46.721Z,77343.88
2023-11-04T12:44:38.995Z,77393.31
2023-11-04T12:46:31.802Z,77373.53
2023-11-04T12:48:23.587Z,77387.38
2023-11-04T12:50:16.451Z,77387.38
2023-11-04T12:52:08.643Z,77393.31
2023-11-04T12:54:00.239Z,77393.31
2023-11-04T12:55:52.432Z,77385.41
2023-11-04T12:57:44.242Z,77407.16
2023-11-04T12:59:35.869Z,77393.31
2023-11-04T13:01:27.295Z,77432.88
2023-11-04T13:03:18.703Z,77415.06
2023-11-04T13:05:10.766Z,77454.63
2023-11-04T13:07:05.448Z,77444.75
2023-11-04T13:08:56.814Z,77462.53
2023-11-04T13:10:49.295Z,77476.38
2023-11-04T13:12:40.735Z,77472.44
2023-11-04T13:14:32.428Z,77490.22
2023-11-04T13:16:27.456Z,77460.56
2023-11-04T13:18:20.027Z,77482.31
2023-11-04T13:20:12.390Z,77494.19
2023-11-04T13:22:04.322Z,77498.16
2023-11-04T13:23:55.547Z,77500.13
2023-11-04T13:25:46.993Z,77506.06
2023-11-04T13:27:39.313Z,77513.97
2023-11-04T13:29:30.876Z,77513.97
2023-11-04T13:31:22.802Z,77470.47
2023-11-04T13:33:14.680Z,77462.53
2023-11-04T13:35:06.920Z,77430.91
2023-11-04T13:36:58.924Z,77452.66
2023-11-04T13:38:57.529Z,77504.06
2023-11-04T13:40:57.513Z,77533.75
2023-11-04T13:42:48.789Z,77508.03
2023-11-04T13:44:40.745Z,77565.38
2023-11-04T13:46:32.435Z,77543.63
2023-11-04T13:48:24.140Z,77537.69
2023-11-04T13:50:20.563Z,77553.53
2023-11-04T13:52:15.880Z,77557.47
2023-11-04T13:54:09.998Z,77573.31
2023-11-04T13:56:01.603Z,77573.31
2023-11-04T13:57:54.096Z,77559.47
2023-11-04T13:59:49.871Z,77587.16
2023-11-04T14:01:45.189Z,77593.09
2023-11-04T14:03:36.960Z,77565.38
2023-11-04T14:05:32.988Z,77595.06
2023-11-04T14:07:25.239Z,77587.16
2023-11-04T14:09:17.917Z,77579.25
2023-11-04T14:11:10.827Z,77587.16
2023-11-04T14:13:02.463Z,77581.22
2023-11-04T14:14:57.677Z,77573.31
2023-11-04T14:16:49.872Z,77569.34
2023-11-04T14:18:42.511Z,77577.25
2023-11-04T14:20:36.144Z,77589.13
2023-11-04T14:22:29.202Z,77581.22
2023-11-04T14:24:21.421Z,77573.31
2023-11-04T14:26:13.264Z,77610.88
2023-11-04T14:28:05.277Z,77597.03
2023-11-04T14:29:57.311Z,77597.03
2023-11-04T14:31:52.753Z,77601.00
2023-11-04T14:33:44.954Z,77612.84
2023-11-04T14:35:39.424Z,77610.88
2023-11-04T14:37:30.800Z,77601.00
2023-11-04T14:39:22.538Z,77636.59
2023-11-04T14:41:16.987Z,77608.91
2023-11-04T14:43:09.219Z,77595.06
2023-11-04T14:45:02.389Z,77610.88
2023-11-04T14:46:55.334Z,77640.56
2023-11-04T14:48:50.376Z,77632.63
2023-11-04T14:50:54.623Z,77622.75
2023-11-04T14:52:49.107Z,77628.69
2023-11-04T14:54:41.651Z,77644.50
2023-11-04T14:56:35.826Z,77662.31
2023-11-04T14:58:27.058Z,77648.47
2023-11-04T15:00:22.619Z,77640.56
2023-11-04T15:02:21.421Z,77632.63
2023-11-04T15:04:14.786Z,77640.56
2023-11-04T15:06:12.042Z,77636.59
2023-11-04T15:08:06.708Z,77614.84
2023-11-04T15:09:59.182Z,77664.28
2023-11-04T15:11:51.381Z,77632.63
2023-11-04T15:13:43.225Z,77636.59
2023-11-04T15:15:37.273Z,77648.47
2023-11-04T15:17:31.067Z,77644.50
2023-11-04T15:19:26.552Z,77636.59
2023-11-04T15:21:18.695Z,77624.72
2023-11-04T15:23:13.697Z,77640.56
2023-11-04T15:25:07.699Z,77602.97
2023-11-04T15:26:59.819Z,77604.94
2023-11-04T15:28:51.858Z,77616.81
2023-11-04T15:30:44.106Z,77632.63
2023-11-04T15:32:41.816Z,77620.78
2023-11-04T15:34:37.075Z,77628.69
2023-11-04T15:36:29.208Z,77614.84
2023-11-04T15:38:21.975Z,77648.47
2023-11-04T15:40:14.788Z,77644.50
2023-11-04T15:42:07.335Z,77666.25
2023-11-04T15:43:59.476Z,77652.41
2023-11-04T15:45:51.496Z,77632.63
2023-11-04T15:47:43.442Z,77640.56
2023-11-04T15:49:35.572Z,77626.72
2023-11-04T15:51:28.260Z,77638.56
2023-11-04T15:53:20.358Z,77660.34
2023-11-04T15:55:11.833Z,77602.97
2023-11-04T15:57:03.637Z,77636.59
2023-11-04T15:58:55.421Z,77644.50
2023-11-04T16:00:48.766Z,77606.94
2023-11-04T16:02:45.193Z,77668.25
2023-11-04T16:04:39.023Z,77670.22
2023-11-04T16:06:31.640Z,77650.44
2023-11-04T16:08:27.231Z,77656.38
2023-11-04T16:10:19.071Z,77660.34
2023-11-04T16:12:10.594Z,77638.56
2023-11-04T16:14:03.014Z,77658.34
2023-11-04T16:15:54.597Z,77686.03
2023-11-04T16:17:47.100Z,77658.34
2023-11-04T16:19:43.757Z,77656.38
2023-11-04T16:21:35.408Z,77670.22
2023-11-04T16:23:27.980Z,77678.13
2023-11-04T16:25:20.678Z,77686.03
2023-11-04T16:27:15.520Z,77715.72
2023-11-04T16:29:08.113Z,77691.97
2023-11-04T16:31:00.401Z,77688.03
2023-11-04T16:32:53.124Z,77668.25
2023-11-04T16:34:45.269Z,77688.03
2023-11-04T16:36:37.614Z,77707.81
2023-11-04T16:38:29.644Z,77699.88
2023-11-04T16:40:21.954Z,77691.97
2023-11-04T16:42:14.973Z,77715.72
2023-11-04T16:44:07.191Z,77731.53
2023-11-04T16:45:59.407Z,77735.50
2023-11-04T16:47:51.392Z,77755.28
2023-11-04T16:49:44.642Z,77747.34
2023-11-04T16:51:37.150Z,77723.63
2023-11-04T16:53:29.150Z,77735.50
2023-11-04T16:55:21.053Z,77743.41
2023-11-04T16:57:12.760Z,77755.28
2023-11-04T16:59:05.790Z,77711.75
2023-11-04T17:00:58.581Z,77691.97
2023-11-04T17:02:51.618Z,77739.44
2023-11-04T17:04:44.255Z,77751.31
2023-11-04T17:06:36.821Z,77735.50
2023-11-04T17:08:28.709Z,77735.50
2023-11-04T17:10:20.531Z,77751.31
2023-11-04T17:12:13.201Z,77751.31
2023-11-04T17:14:11.552Z,77745.38
2023-11-04T17:16:05.294Z,77771.09
2023-11-04T17:17:57.702Z,77757.25
2023-11-04T17:19:50.594Z,77773.06
2023-11-04T17:21:42.506Z,77780.97
2023-11-04T17:23:34.229Z,77794.84
2023-11-04T17:25:25.921Z,77792.84
2023-11-04T17:27:18.583Z,77775.06
2023-11-04T17:29:10.505Z,77788.91
2023-11-04T17:31:03.649Z,77792.84
2023-11-04T17:32:56.424Z,77798.78
2023-11-04T17:34:51.605Z,77763.19
2023-11-04T17:36:43.271Z,77786.91
2023-11-04T17:38:36.897Z,77773.06
2023-11-04T17:40:29.781Z,77782.97
2023-11-04T17:42:22.862Z,77784.94
2023-11-04T17:44:18.780Z,77782.97
2023-11-04T17:46:10.823Z,77792.84
2023-11-04T17:48:05.157Z,77796.81
2023-11-04T17:49:57.421Z,77794.84
2023-11-04T17:51:51.546Z,77775.06
2023-11-04T17:53:44.507Z,77786.91
2023-11-04T17:55:39.309Z,77800.75
2023-11-04T17:57:34.927Z,77775.06
2023-11-04T17:59:28.713Z,77751.31
2023-11-04T18:01:20.321Z,77751.31
2023-11-04T18:03:11.798Z,77755.28
2023-11-04T18:05:03.803Z,77751.31
2023-11-04T18:06:58.542Z,77749.34
2023-11-04T18:08:50.739Z,77741.44
2023-11-04T18:10:45.996Z,77761.22
2023-11-04T18:12:38.085Z,77727.59
2023-11-04T18:14:29.970Z,77775.06
2023-11-04T18:16:23.021Z,77755.28
2023-11-04T18:18:16.621Z,77745.38
2023-11-04T18:20:11.126Z,77747.34
2023-11-04T18:22:02.721Z,77703.84
2023-11-04T18:23:54.301Z,77699.88
2023-11-04T18:25:45.678Z,77709.78
2023-11-04T18:27:51.332Z,77723.63
2023-11-04T18:29:51.004Z,77733.50
2023-11-04T18:31:43.318Z,77755.28
2023-11-04T18:33:34.820Z,77757.25
2023-11-04T18:35:29.939Z,77782.97
2023-11-04T18:37:21.741Z,77788.91
2023-11-04T18:39:13.512Z,77763.19
2023-11-04T18:41:06.529Z,77763.19
2023-11-04T18:42:57.990Z,77765.16
2023-11-04T18:44:49.423Z,77790.88
2023-11-04T18:46:41.049Z,77794.84
2023-11-04T18:48:35.010Z,77820.53
2023-11-04T18:50:28.324Z,77810.66
2023-11-04T18:52:20.979Z,77828.47
2023-11-04T18:54:12.583Z,77834.38
2023-11-04T18:56:04.241Z,77834.38
2023-11-04T18:58:02.095Z,77822.53
2023-11-04T18:59:53.753Z,77822.53
2023-11-04T19:01:45.311Z,77834.38
2023-11-04T19:03:37.680Z,77846.25
2023-11-04T19:05:29.862Z,77846.25
2023-11-04T19:07:21.720Z,77856.16
2023-11-04T19:09:13.164Z,77866.03
2023-11-04T19:11:05.033Z,77866.03
2023-11-04T19:12:56.603Z,77871.97
2023-11-04T19:14:50.006Z,77883.84
2023-11-04T19:16:41.328Z,77866.03
2023-11-04T19:18:33.023Z,77866.03
2023-11-04T19:20:24.918Z,77862.09
2023-11-04T19:22:16.767Z,77864.06
2023-11-04T19:24:08.727Z,77862.09
2023-11-04T19:26:00.579Z,77907.56
2023-11-04T19:27:51.634Z,77909.56
2023-11-04T19:29:43.270Z,77868.00
2023-11-04T19:31:35.414Z,77873.94
2023-11-04T19:33:27.399Z,77913.50
2023-11-04T19:35:18.974Z,77889.78
2023-11-04T19:37:10.809Z,77885.81
2023-11-04T19:39:02.358Z,77903.63
2023-11-04T19:40:54.087Z,77887.78
2023-11-04T19:42:45.475Z,77929.34
2023-11-04T19:44:37.149Z,77917.47
2023-11-04T19:46:29.161Z,77921.44
2023-11-04T19:48:20.708Z,77929.34
2023-11-04T19:50:14.394Z,77984.72
2023-11-04T19:52:06.301Z,77949.13
2023-11-04T19:53:58.030Z,77960.97
2023-11-04T19:55:49.509Z,77966.91
2023-11-04T19:57:41.655Z,77947.13
2023-11-04T19:59:33.636Z,77955.06
2023-11-04T20:01:25.266Z,77976.81
2023-11-04T20:05:10.063Z,77921.44
2023-11-04T20:07:01.275Z,77907.56
2023-11-04T20:08:54.772Z,77901.66
2023-11-04T20:10:46.707Z,77941.22
2023-11-04T20:12:38.170Z,77925.38
2023-11-04T20:14:34.182Z,77935.28
2023-11-04T20:16:25.731Z,77927.34
2023-11-04T20:18:17.358Z,77919.44
2023-11-04T20:20:09.467Z,77933.28
2023-11-04T20:22:01.741Z,77935.28
2023-11-04T20:23:53.356Z,77925.38
2023-11-04T20:25:45.867Z,77945.16
2023-11-04T20:27:37.732Z,77897.69
2023-11-04T20:29:29.423Z,77949.13
2023-11-04T20:31:20.661Z,77960.97
2023-11-04T20:33:12.069Z,77960.97
2023-11-04T20:35:04.250Z,77951.09
2023-11-04T20:36:55.592Z,77933.28
2023-11-04T20:38:47.017Z,77931.31
2023-11-04T20:40:40.415Z,77885.81
2023-11-04T20:42:33.788Z,77911.53
2023-11-04T20:44:25.209Z,77923.41
2023-11-04T20:46:16.593Z,77893.72
2023-11-04T20:48:08.875Z,77917.47
2023-11-04T20:50:02.273Z,77933.28
2023-11-04T20:51:55.145Z,77917.47
2023-11-04T20:53:46.672Z,77913.50
2023-11-04T20:55:37.874Z,77907.56
2023-11-04T20:57:28.904Z,77901.66
2023-11-04T20:59:21.023Z,77913.50
2023-11-04T21:01:13.149Z,77893.72
2023-11-04T21:03:06.426Z,77903.63
2023-11-04T21:04:57.959Z,77919.44
2023-11-04T21:06:49.405Z,77921.44
2023-11-04T21:08:40.979Z,77909.56
2023-11-04T21:10:32.780Z,77893.72
2023-11-04T21:12:26.123Z,77909.56
2023-11-04T21:14:17.603Z,77921.44
2023-11-04T21:16:10.945Z,77921.44
2023-11-04T21:18:02.919Z,77905.59
2023-11-04T21:19:54.597Z,77923.41
2023-11-04T21:21:46.568Z,77931.31
2023-11-04T21:23:38.427Z,77923.41
2023-11-04T21:25:29.935Z,77925.38
2023-11-04T21:27:21.492Z,77945.16
2023-11-04T21:29:13.308Z,77955.06
2023-11-04T21:31:05.160Z,77939.22
2023-11-04T21:32:56.524Z,77945.16
2023-11-04T21:34:48.228Z,77939.22
2023-11-04T21:36:39.971Z,77917.47
2023-11-04T21:38:31.590Z,77929.34
2023-11-04T21:40:23.521Z,77935.28
2023-11-04T21:42:14.920Z,78004.50
2023-11-04T21:44:09.672Z,77968.91
2023-11-04T21:46:01.161Z,77994.63
2023-11-04T21:47:52.682Z,78004.50
2023-11-04T21:49:44.453Z,78008.47
2023-11-04T21:51:35.939Z,78030.22
2023-11-04T21:53:27.257Z,78063.84
2023-11-04T21:55:18.620Z,78069.78
2023-11-04T21:57:10.107Z,78079.66
2023-11-04T21:59:01.293Z,78075.72
2023-11-04T22:00:52.815Z,78077.69
2023-11-04T22:02:43.971Z,78055.94
2023-11-04T22:04:35.572Z,78053.97
2023-11-04T22:06:26.737Z,78051.97
2023-11-04T22:08:18.872Z,78069.78
2023-11-04T22:10:10.478Z,78081.66
2023-11-04T22:12:01.752Z,78073.75
2023-11-04T22:13:53.423Z,78067.81
2023-11-04T22:15:45.491Z,78091.53
2023-11-04T22:17:37.088Z,78079.66
2023-11-04T22:19:28.960Z,78103.41
2023-11-04T22:21:20.879Z,78067.81
2023-11-04T22:23:12.077Z,78073.75
2023-11-04T22:25:04.563Z,78067.81
2023-11-04T22:26:56.096Z,78103.41
2023-11-04T22:28:47.391Z,78087.59
2023-11-04T22:30:39.341Z,78079.66
2023-11-04T22:32:30.548Z,78073.75
2023-11-04T22:34:21.802Z,78075.72
2023-11-04T22:36:13.349Z,78091.53
2023-11-04T22:38:04.814Z,78137.03
2023-11-04T22:39:56.176Z,78144.94
2023-11-04T22:41:47.624Z,78142.97
2023-11-04T22:43:39.756Z,78141.00
2023-11-04T22:45:31.339Z,78117.25
2023-11-04T22:47:22.658Z,78119.22
2023-11-04T22:49:14.227Z,78105.38
2023-11-04T22:51:05.625Z,78107.38
2023-11-04T22:52:56.896Z,78103.41
2023-11-04T22:54:48.594Z,78083.63
2023-11-04T22:56:40.491Z,78091.53
2023-11-04T22:58:32.930Z,78103.41
2023-11-04T23:00:31.743Z,78129.13
2023-11-04T23:02:23.489Z,78125.16
2023-11-04T23:04:15.311Z,78103.41